Terminal Aerodrome Forecast
Issued by NWS Charleston, WV

Current Version | Previous Version | Text Only | Print | Product List | Glossary On
Versions: 1 2 3 4 5 6 7 8 9 10 11 12 13 14 15 16 17 18 19 20 21 22
000
FTUS41 KRLX 151500 AAA
TAFHTS
TAF AMD
KHTS 151501Z 1515/1612 05009KT P6SM BKN080 OVC110
     FM151600 08007KT 6SM -SHRA OVC025
     FM152300 09007KT P6SM BKN035
     FM161000 13007KT P6SM BKN250=

USA.gov is the U.S. government's official web portal to all federal, state and local government web resources and services.